createdAt,value
2022-08-02T00:00:34.264Z,82.19
2022-08-02T00:03:01.169Z,82.25
2022-08-02T00:05:28.127Z,82.13
2022-08-02T00:07:55.121Z,83.00
2022-08-02T00:10:22.073Z,82.60
2022-08-02T00:12:49.036Z,82.38
2022-08-02T00:15:16.560Z,82.00
2022-08-02T00:17:46.364Z,81.64
2022-08-02T00:20:15.848Z,81.81
2022-08-02T00:22:42.855Z,81.82
2022-08-02T00:25:10.048Z,82.03
2022-08-02T00:27:36.949Z,81.77
2022-08-02T00:30:04.924Z,81.89
2022-08-02T00:32:31.971Z,81.87
2022-08-02T00:34:58.908Z,81.88
2022-08-02T00:37:25.854Z,81.83
2022-08-02T00:39:52.827Z,81.88
2022-08-02T00:42:19.972Z,82.04
2022-08-02T00:44:46.913Z,81.94
2022-08-02T00:47:19.071Z,81.80
2022-08-02T00:49:46.765Z,82.07
2022-08-02T00:52:14.192Z,82.31
2022-08-02T00:54:41.465Z,82.44
2022-08-02T00:57:08.606Z,82.70
2022-08-02T00:59:35.556Z,82.96
2022-08-02T01:02:02.593Z,82.57
2022-08-02T01:04:31.215Z,83.03
2022-08-02T01:07:12.506Z,83.00
2022-08-02T01:09:41.534Z,82.86
2022-08-02T01:12:09.269Z,83.09
2022-08-02T01:14:36.708Z,83.19
2022-08-02T01:17:27.832Z,82.96
2022-08-02T01:20:12.353Z,83.59
2022-08-02T01:23:02.058Z,83.21
2022-08-02T01:25:48.313Z,83.20
2022-08-02T01:28:53.931Z,83.64
2022-08-02T01:31:46.253Z,83.06
2022-08-02T01:34:48.465Z,82.63
2022-08-02T01:37:32.973Z,83.05
2022-08-02T01:40:17.768Z,82.94
2022-08-02T01:42:50.011Z,82.87
2022-08-02T01:45:20.268Z,82.62
2022-08-02T01:47:48.435Z,82.92
2022-08-02T01:50:18.685Z,82.82
2022-08-02T01:52:53.998Z,83.31
2022-08-02T01:55:35.314Z,83.51
2022-08-02T01:58:24.860Z,83.82
2022-08-02T02:00:53.089Z,82.99
2022-08-02T02:03:24.621Z,83.57
2022-08-02T02:05:55.891Z,83.51
2022-08-02T02:08:32.843Z,83.92
2022-08-02T02:12:12.116Z,83.90
2022-08-02T02:13:50.601Z,84.04
2022-08-02T02:16:19.953Z,84.26
2022-08-02T02:18:48.055Z,83.40
2022-08-02T02:21:15.404Z,84.03
2022-08-02T02:23:43.548Z,83.93
2022-08-02T02:26:14.655Z,83.16
2022-08-02T02:28:47.909Z,83.66
2022-08-02T02:31:19.495Z,83.63
2022-08-02T02:34:16.782Z,84.03
2022-08-02T02:36:49.612Z,83.87
2022-08-02T02:39:22.332Z,83.74
2022-08-02T02:41:51.973Z,83.76
2022-08-02T02:44:21.861Z,83.67
2022-08-02T02:46:54.198Z,83.48
2022-08-02T02:49:23.286Z,83.24
2022-08-02T02:51:52.459Z,83.72
2022-08-02T02:54:32.309Z,83.69
2022-08-02T02:57:03.688Z,83.83
2022-08-02T02:59:32.085Z,84.17
2022-08-02T03:01:59.109Z,84.32
2022-08-02T03:04:55.775Z,84.33
2022-08-02T03:07:16.303Z,84.00
2022-08-02T03:09:43.416Z,84.27
2022-08-02T03:12:11.600Z,85.08
2022-08-02T03:14:44.038Z,84.68
2022-08-02T03:17:11.157Z,84.28
2022-08-02T03:19:38.256Z,84.84
2022-08-02T03:22:05.301Z,83.99
2022-08-02T03:24:32.619Z,83.98
2022-08-02T03:26:59.598Z,84.73
2022-08-02T03:29:26.523Z,84.50
2022-08-02T03:31:54.349Z,83.11
2022-08-02T03:34:22.060Z,83.13
2022-08-02T03:36:54.253Z,84.14
2022-08-02T03:39:22.286Z,83.16
2022-08-02T03:41:50.291Z,83.78
2022-08-02T03:44:18.174Z,83.65
2022-08-02T03:46:45.653Z,83.45
2022-08-02T03:49:16.467Z,82.29
2022-08-02T03:51:44.811Z,82.24
2022-08-02T03:54:12.192Z,83.01
2022-08-02T03:56:39.936Z,82.14
2022-08-02T03:59:14.098Z,82.73
2022-08-02T04:01:41.328Z,82.63
2022-08-02T04:04:08.553Z,82.20
2022-08-02T04:06:35.833Z,83.16
2022-08-02T04:09:07.441Z,83.01
2022-08-02T04:11:34.503Z,83.24
2022-08-02T04:14:09.413Z,83.53
2022-08-02T04:16:46.868Z,83.51
2022-08-02T04:19:31.692Z,83.57
2022-08-02T04:22:04.786Z,83.61
2022-08-02T04:24:39.425Z,83.09
2022-08-02T04:27:51.278Z,83.01
2022-08-02T04:29:58.004Z,83.61
2022-08-02T04:32:25.274Z,83.13
2022-08-02T04:35:18.093Z,84.02
2022-08-02T04:38:09.469Z,83.85
2022-08-02T04:40:27.215Z,83.59
2022-08-02T04:42:54.300Z,83.74
2022-08-02T04:45:22.272Z,83.38
2022-08-02T04:48:01.440Z,83.92
2022-08-02T04:50:30.651Z,83.86
2022-08-02T04:52:57.632Z,83.35
2022-08-02T04:55:28.388Z,83.95
2022-08-02T04:57:57.334Z,83.83
2022-08-02T05:00:27.003Z,83.37
2022-08-02T05:02:57.584Z,82.27
2022-08-02T05:05:25.015Z,83.26
2022-08-02T05:07:52.472Z,82.80
2022-08-02T05:10:20.011Z,83.36
2022-08-02T05:12:47.148Z,83.12
2022-08-02T05:15:16.636Z,82.35
2022-08-02T05:17:47.690Z,82.88
2022-08-02T05:20:17.269Z,82.12
2022-08-02T05:22:44.574Z,81.94
2022-08-02T05:25:11.912Z,81.71
2022-08-02T05:27:38.876Z,81.65
2022-08-02T05:30:07.465Z,81.53
2022-08-02T05:32:34.549Z,81.59
2022-08-02T05:35:02.730Z,81.07
2022-08-02T05:37:31.877Z,80.81
2022-08-02T05:40:00.797Z,79.92
2022-08-02T05:42:32.261Z,80.26
2022-08-02T05:44:59.691Z,79.71
2022-08-02T05:47:26.656Z,80.29
2022-08-02T05:49:53.824Z,80.23
2022-08-02T05:52:22.899Z,80.33
2022-08-02T05:55:15.045Z,80.13
2022-08-02T05:58:03.994Z,80.28
2022-08-02T06:00:33.174Z,80.16
2022-08-02T06:03:22.364Z,80.08
2022-08-02T06:06:05.369Z,79.23
2022-08-02T06:08:39.252Z,79.80
2022-08-02T06:11:07.399Z,79.99
2022-08-02T06:13:35.156Z,79.13
2022-08-02T06:16:03.807Z,78.61
2022-08-02T06:18:32.171Z,78.08
2022-08-02T06:22:31.433Z,77.76
2022-08-02T06:23:58.096Z,77.14
2022-08-02T06:26:28.030Z,77.76
2022-08-02T06:28:57.769Z,77.26
2022-08-02T06:31:25.488Z,75.83
2022-08-02T06:33:53.788Z,76.15
2022-08-02T06:36:46.108Z,75.64
2022-08-02T06:39:32.217Z,74.44
2022-08-02T06:42:06.245Z,73.10
2022-08-02T06:44:54.253Z,72.13
2022-08-02T06:47:22.065Z,71.88
2022-08-02T06:49:52.065Z,70.58
2022-08-02T06:52:29.704Z,69.04
2022-08-02T06:54:59.482Z,69.52
2022-08-02T06:57:27.461Z,67.25
2022-08-02T06:59:55.165Z,68.74
2022-08-02T07:02:22.224Z,65.27
2022-08-02T07:04:49.376Z,65.59
2022-08-02T07:07:16.329Z,65.67
2022-08-02T07:09:56.905Z,65.06
2022-08-02T07:12:32.850Z,64.16
2022-08-02T07:15:04.494Z,63.70
2022-08-02T07:17:31.663Z,62.63
2022-08-02T07:19:59.382Z,64.42
2022-08-02T07:22:28.109Z,62.50
2022-08-02T07:24:57.641Z,63.18
2022-08-02T07:27:25.313Z,62.01
2022-08-02T07:29:52.932Z,62.34
2022-08-02T07:32:24.323Z,62.72
2022-08-02T07:34:53.575Z,61.36
2022-08-02T07:37:52.772Z,61.44
2022-08-02T07:40:19.837Z,61.65
2022-08-02T07:42:57.823Z,63.59
2022-08-02T07:45:30.463Z,61.72
2022-08-02T07:47:57.432Z,60.05
2022-08-02T07:50:24.594Z,61.26
2022-08-02T07:52:57.233Z,60.83
2022-08-02T07:55:25.437Z,60.74
2022-08-02T07:58:07.071Z,59.89
2022-08-02T08:00:38.400Z,59.23
2022-08-02T08:03:06.267Z,62.17
2022-08-02T08:05:33.249Z,57.79
2022-08-02T08:08:00.332Z,59.44
2022-08-02T08:10:27.367Z,59.08
2022-08-02T08:12:55.226Z,59.53
2022-08-02T08:15:22.468Z,59.02
2022-08-02T08:17:49.460Z,58.71
2022-08-02T08:20:16.410Z,57.42
2022-08-02T08:22:43.879Z,57.11
2022-08-02T08:25:10.882Z,57.35
2022-08-02T08:27:38.043Z,57.64
2022-08-02T08:30:05.485Z,56.54
2022-08-02T08:32:32.428Z,56.66
2022-08-02T08:34:59.633Z,55.56
2022-08-02T08:37:27.271Z,55.83
2022-08-02T08:39:58.442Z,55.87
2022-08-02T08:42:31.274Z,55.96
2022-08-02T08:44:59.734Z,53.24
2022-08-02T08:47:39.832Z,52.80
2022-08-02T08:50:20.087Z,54.97
2022-08-02T08:53:07.401Z,53.89
2022-08-02T08:55:36.980Z,54.87
2022-08-02T08:58:06.247Z,55.65
2022-08-02T09:00:36.040Z,52.16
2022-08-02T09:03:05.805Z,53.87
2022-08-02T09:05:36.866Z,54.06
2022-08-02T09:08:05.189Z,53.20
2022-08-02T09:10:46.064Z,54.05
2022-08-02T09:13:38.664Z,51.93
2022-08-02T09:16:11.812Z,53.19
2022-08-02T09:18:47.353Z,52.59
2022-08-02T09:21:17.015Z,52.35
2022-08-02T09:23:52.917Z,51.20
2022-08-02T09:26:23.394Z,52.51
2022-08-02T09:28:59.949Z,51.27
2022-08-02T09:31:27.316Z,49.90
2022-08-02T09:33:59.757Z,50.48
2022-08-02T09:36:40.648Z,49.21
2022-08-02T09:39:15.871Z,48.93
2022-08-02T09:41:45.661Z,50.29
2022-08-02T09:44:16.378Z,49.44
2022-08-02T09:46:47.177Z,52.02
2022-08-02T09:49:19.830Z,51.00
2022-08-02T09:51:47.163Z,51.02
2022-08-02T09:54:32.946Z,48.86
2022-08-02T09:57:02.054Z,49.97
2022-08-02T09:59:29.922Z,50.02
2022-08-02T10:02:02.215Z,48.45
2022-08-02T10:04:34.325Z,48.41
2022-08-02T10:07:21.639Z,48.23
2022-08-02T10:09:50.490Z,49.30
2022-08-02T10:12:17.784Z,48.67
2022-08-02T10:14:45.720Z,48.49
2022-08-02T10:17:12.855Z,50.18
2022-08-02T10:20:01.834Z,50.61
2022-08-02T10:22:27.881Z,50.79
2022-08-02T10:24:55.423Z,52.38
2022-08-02T10:27:25.072Z,53.04
2022-08-02T10:29:56.100Z,53.91
2022-08-02T10:32:43.988Z,53.01
2022-08-02T10:35:26.027Z,53.25
2022-08-02T10:37:58.592Z,51.60
2022-08-02T10:40:28.744Z,53.21
2022-08-02T10:43:00.922Z,51.49
2022-08-02T10:45:29.141Z,49.12
2022-08-02T10:48:06.014Z,51.13
2022-08-02T10:50:48.373Z,50.82
2022-08-02T10:53:34.825Z,50.86
2022-08-02T10:56:05.127Z,51.16
2022-08-02T10:58:34.418Z,50.80
2022-08-02T11:01:38.724Z,50.03
2022-08-02T11:04:10.550Z,48.97
2022-08-02T11:07:17.186Z,48.62
2022-08-02T11:09:47.802Z,48.66
2022-08-02T11:12:22.053Z,46.63
2022-08-02T11:15:07.419Z,46.82
2022-08-02T11:17:55.372Z,47.26
2022-08-02T11:20:25.015Z,47.40
2022-08-02T11:22:54.923Z,49.51
2022-08-02T11:25:24.801Z,48.26
2022-08-02T11:27:53.728Z,47.77
2022-08-02T11:30:26.744Z,47.16
2022-08-02T11:32:59.479Z,44.85
2022-08-02T11:35:53.419Z,43.72
2022-08-02T11:38:22.576Z,43.65
2022-08-02T11:40:50.098Z,43.23
2022-08-02T11:43:27.774Z,45.04
2022-08-02T11:45:56.508Z,44.75
2022-08-02T11:48:35.218Z,44.15
2022-08-02T11:51:15.208Z,43.67
2022-08-02T11:53:51.398Z,43.08
2022-08-02T11:56:30.206Z,43.35
2022-08-02T11:59:10.625Z,42.81
2022-08-02T12:01:45.601Z,45.71
2022-08-02T12:04:18.556Z,44.04
2022-08-02T12:06:56.245Z,43.53
2022-08-02T12:09:26.508Z,44.44
2022-08-02T12:11:54.923Z,41.99
2022-08-02T12:14:23.992Z,43.46
2022-08-02T12:17:10.472Z,42.06
2022-08-02T12:19:38.667Z,41.66
2022-08-02T12:22:13.728Z,42.65
2022-08-02T12:24:44.812Z,43.14
2022-08-02T12:27:38.164Z,43.58
2022-08-02T12:30:13.897Z,43.74
2022-08-02T12:32:42.232Z,43.01
2022-08-02T12:35:15.337Z,42.88
2022-08-02T12:37:54.152Z,43.30
2022-08-02T12:40:31.232Z,42.54
2022-08-02T12:43:01.868Z,42.75
2022-08-02T12:45:48.666Z,43.94
2022-08-02T12:48:36.469Z,46.25
2022-08-02T12:51:24.192Z,45.29
2022-08-02T12:53:59.759Z,44.68
2022-08-02T12:56:39.458Z,43.47
2022-08-02T12:59:07.057Z,43.31
2022-08-02T13:01:35.897Z,44.76
2022-08-02T13:04:12.015Z,43.50
2022-08-02T13:06:44.580Z,44.40
2022-08-02T13:09:15.405Z,44.35
2022-08-02T13:11:43.707Z,43.42
2022-08-02T13:14:12.760Z,44.57
2022-08-02T13:16:40.973Z,45.91
2022-08-02T13:19:07.936Z,42.90
2022-08-02T13:21:40.634Z,43.57
2022-08-02T13:24:41.110Z,43.30
2022-08-02T13:27:10.281Z,42.13
2022-08-02T13:29:38.256Z,43.11
2022-08-02T13:32:05.732Z,43.70
2022-08-02T13:34:32.726Z,43.40
2022-08-02T13:36:59.990Z,43.85
2022-08-02T13:39:26.948Z,45.04
2022-08-02T13:41:55.108Z,41.99
2022-08-02T13:44:22.328Z,41.81
2022-08-02T13:46:49.290Z,41.25
2022-08-02T13:49:19.853Z,40.32
2022-08-02T13:51:48.296Z,41.45
2022-08-02T13:54:18.058Z,40.00
2022-08-02T13:56:45.319Z,41.87
2022-08-02T13:59:53.499Z,40.49
2022-08-02T14:01:59.843Z,42.07
2022-08-02T14:04:27.689Z,40.57
2022-08-02T14:06:54.699Z,42.86
2022-08-02T14:09:26.245Z,42.90
2022-08-02T14:11:53.402Z,42.01
2022-08-02T14:14:20.419Z,42.43
2022-08-02T14:16:47.537Z,43.00
2022-08-02T14:19:15.559Z,43.31
2022-08-02T14:21:46.688Z,41.72
2022-08-02T14:24:18.823Z,41.80
2022-08-02T14:26:47.336Z,41.75
2022-08-02T14:29:15.855Z,44.79
2022-08-02T14:31:44.784Z,42.52
2022-08-02T14:34:13.451Z,42.47
2022-08-02T14:36:40.531Z,42.86
2022-08-02T14:39:07.570Z,42.74
2022-08-02T14:42:00.038Z,42.72
2022-08-02T14:44:24.026Z,43.89
2022-08-02T14:46:51.882Z,42.99
2022-08-02T14:49:24.479Z,44.68
2022-08-02T14:51:56.144Z,44.45
2022-08-02T14:54:30.045Z,45.89
2022-08-02T14:57:02.998Z,45.08
2022-08-02T14:59:30.696Z,46.34
2022-08-02T15:01:58.608Z,45.46
2022-08-02T15:04:25.781Z,46.64
2022-08-02T15:06:53.449Z,45.12
2022-08-02T15:09:22.094Z,46.53
2022-08-02T15:11:49.844Z,47.75
2022-08-02T15:14:22.100Z,47.58
2022-08-02T15:16:58.756Z,47.75
2022-08-02T15:19:35.424Z,47.35
2022-08-02T15:22:16.101Z,47.72
2022-08-02T15:24:44.707Z,46.68
2022-08-02T15:27:13.729Z,46.18
2022-08-02T15:29:41.505Z,47.58
2022-08-02T15:32:08.601Z,47.54
2022-08-02T15:34:35.739Z,47.00
2022-08-02T15:37:03.224Z,47.08
2022-08-02T15:39:30.504Z,46.71
2022-08-02T15:41:57.766Z,47.27
2022-08-02T15:44:25.041Z,48.07
2022-08-02T15:46:54.104Z,47.60
2022-08-02T15:49:23.840Z,48.50
2022-08-02T15:51:52.239Z,48.59
2022-08-02T15:54:19.550Z,48.70
2022-08-02T15:56:46.642Z,49.11
2022-08-02T15:59:13.769Z,49.36
2022-08-02T16:01:44.989Z,48.35
2022-08-02T16:04:15.022Z,48.44
2022-08-02T16:06:42.386Z,48.88
2022-08-02T16:09:09.540Z,49.65
2022-08-02T16:11:36.507Z,49.38
2022-08-02T16:14:04.052Z,51.50
2022-08-02T16:16:33.704Z,50.39
2022-08-02T16:19:46.351Z,51.14
2022-08-02T16:21:50.493Z,50.19
2022-08-02T16:24:17.885Z,50.33
2022-08-02T16:26:45.007Z,51.16
2022-08-02T16:29:12.789Z,51.29
2022-08-02T16:31:42.821Z,51.55
2022-08-02T16:34:10.299Z,53.42
2022-08-02T16:36:37.575Z,50.73
2022-08-02T16:39:05.450Z,51.36
2022-08-02T16:41:45.484Z,51.92
2022-08-02T16:44:29.221Z,51.76
2022-08-02T16:47:00.456Z,51.57
2022-08-02T16:52:16.667Z,52.93
2022-08-02T16:54:49.354Z,53.17
2022-08-02T16:57:17.297Z,53.17
2022-08-02T16:59:57.801Z,52.77
2022-08-02T17:02:28.552Z,52.62
2022-08-02T17:04:56.656Z,53.25
2022-08-02T17:08:07.451Z,52.06
2022-08-02T17:10:11.276Z,52.57
2022-08-02T17:12:39.554Z,53.10
2022-08-02T17:16:01.154Z,53.48
2022-08-02T17:17:56.474Z,53.91
2022-08-02T17:20:24.541Z,53.18
2022-08-02T17:22:52.586Z,53.01
2022-08-02T17:25:20.295Z,53.62
2022-08-02T17:27:47.667Z,53.52
2022-08-02T17:30:26.895Z,53.83
2022-08-02T17:32:57.799Z,54.16
2022-08-02T17:35:27.287Z,54.23
2022-08-02T17:38:10.911Z,54.50
2022-08-02T17:40:44.845Z,53.88
2022-08-02T17:43:14.654Z,54.97
2022-08-02T17:46:00.855Z,55.27
2022-08-02T17:48:49.426Z,55.73
2022-08-02T17:51:32.976Z,56.17
2022-08-02T17:54:04.198Z,55.29
2022-08-02T17:56:31.484Z,55.80
2022-08-02T17:59:22.800Z,55.71
2022-08-02T18:02:11.643Z,56.36
2022-08-02T18:04:38.859Z,56.44
2022-08-02T18:07:09.389Z,57.58
2022-08-02T18:09:37.159Z,58.56
2022-08-02T18:12:14.197Z,58.07
2022-08-02T18:14:46.091Z,58.85
2022-08-02T18:17:16.621Z,58.64
2022-08-02T18:19:57.286Z,58.79
2022-08-02T18:22:30.831Z,59.17
2022-08-02T18:24:57.838Z,59.42
2022-08-02T18:27:24.827Z,60.23
2022-08-02T18:30:00.075Z,59.77
2022-08-02T18:33:54.692Z,59.66
2022-08-02T18:35:23.344Z,59.64
2022-08-02T18:38:00.791Z,60.19
2022-08-02T18:40:31.032Z,60.82
2022-08-02T18:42:58.026Z,60.65
2022-08-02T18:45:36.922Z,60.33
2022-08-02T18:51:06.305Z,59.71
2022-08-02T18:53:41.561Z,61.09
2022-08-02T18:56:20.418Z,61.40
2022-08-02T18:58:55.092Z,60.49
2022-08-02T19:01:32.333Z,60.89
2022-08-02T19:04:04.948Z,61.17
2022-08-02T19:06:32.480Z,62.00
2022-08-02T19:09:06.164Z,63.35
2022-08-02T19:11:47.304Z,61.90
2022-08-02T19:14:19.393Z,62.25
2022-08-02T19:16:54.732Z,62.18
2022-08-02T19:19:22.111Z,62.53
2022-08-02T19:22:18.091Z,63.20
2022-08-02T19:24:38.180Z,62.86
2022-08-02T19:27:13.971Z,64.14
2022-08-02T19:29:51.003Z,63.64
2022-08-02T19:32:41.531Z,63.76
2022-08-02T19:35:19.940Z,64.13
2022-08-02T19:37:58.943Z,63.54
2022-08-02T19:40:27.608Z,64.50
2022-08-02T19:44:21.396Z,64.44
2022-08-02T19:45:49.788Z,64.47
2022-08-02T19:48:24.029Z,64.48
2022-08-02T19:50:56.202Z,65.75
2022-08-02T19:53:47.385Z,66.87
2022-08-02T19:56:21.050Z,67.13
2022-08-02T19:58:55.629Z,66.57
2022-08-02T20:01:37.222Z,66.50
2022-08-02T20:04:12.999Z,66.66
2022-08-02T20:06:45.094Z,66.40
2022-08-02T20:09:16.505Z,66.58
2022-08-02T20:11:46.804Z,66.79
2022-08-02T20:14:26.847Z,66.38
2022-08-02T20:16:56.026Z,67.60
2022-08-02T20:19:24.236Z,67.52
2022-08-02T20:21:58.642Z,67.39
2022-08-02T20:24:28.255Z,67.54
2022-08-02T20:26:59.057Z,67.86
2022-08-02T20:29:44.865Z,67.93
2022-08-02T20:32:22.683Z,68.15
2022-08-02T20:34:50.745Z,67.78
2022-08-02T20:37:59.088Z,68.56
2022-08-02T20:40:10.292Z,67.67
2022-08-02T20:42:45.787Z,68.00
2022-08-02T20:45:15.428Z,67.99
2022-08-02T20:47:42.476Z,67.99
2022-08-02T20:50:32.113Z,66.96
2022-08-02T20:53:00.656Z,68.71
2022-08-02T20:55:31.125Z,67.83
2022-08-02T20:58:01.731Z,68.73
2022-08-02T21:00:30.165Z,68.90
2022-08-02T21:03:00.229Z,69.14
2022-08-02T21:05:43.585Z,69.11
2022-08-02T21:08:15.391Z,69.04
2022-08-02T21:10:52.312Z,69.28
2022-08-02T21:13:26.685Z,70.20
2022-08-02T21:15:55.742Z,70.04
2022-08-02T21:18:37.027Z,69.81
2022-08-02T21:21:09.624Z,70.47
2022-08-02T21:23:37.763Z,70.46
2022-08-02T21:26:06.750Z,70.62
2022-08-02T21:28:44.256Z,70.39
2022-08-02T21:31:16.073Z,69.12
2022-08-02T21:33:57.123Z,70.34
2022-08-02T21:36:32.729Z,70.73
2022-08-02T21:39:08.974Z,71.33
2022-08-02T21:41:46.312Z,70.50
2022-08-02T21:44:19.526Z,71.37
2022-08-02T21:46:54.991Z,72.29
2022-08-02T21:49:40.613Z,71.81
2022-08-02T21:52:13.591Z,72.21
2022-08-02T21:54:41.113Z,72.23
2022-08-02T21:57:16.161Z,72.31
2022-08-02T21:59:46.254Z,71.74
2022-08-02T22:02:15.267Z,71.61
2022-08-02T22:04:47.775Z,72.39
2022-08-02T22:07:23.943Z,72.48
2022-08-02T22:09:51.411Z,71.98
2022-08-02T22:12:19.185Z,72.82
2022-08-02T22:14:53.806Z,73.08
2022-08-02T22:17:51.490Z,72.82
2022-08-02T22:20:15.412Z,72.38
2022-08-02T22:22:42.527Z,72.98
2022-08-02T22:25:10.310Z,72.86
2022-08-02T22:28:34.691Z,73.50
2022-08-02T22:30:41.600Z,74.03
2022-08-02T22:36:16.514Z,73.83
2022-08-02T22:38:45.447Z,74.20
2022-08-02T22:41:14.051Z,73.88
2022-08-02T22:43:42.805Z,73.85
2022-08-02T22:46:15.644Z,74.18
2022-08-02T22:48:45.291Z,75.40
2022-08-02T22:51:14.238Z,74.09
2022-08-02T22:53:43.328Z,72.48
2022-08-02T22:56:11.150Z,75.39
2022-08-02T22:58:45.655Z,60.25
2022-08-02T22:58:50.747Z,51.83
2022-08-02T22:59:07.886Z,75.55
2022-08-02T23:01:25.982Z,75.28
2022-08-02T23:03:52.975Z,74.64
2022-08-02T23:06:21.118Z,74.65
2022-08-02T23:08:50.440Z,75.60
2022-08-02T23:11:17.791Z,75.69
2022-08-02T23:13:44.738Z,72.18
2022-08-02T23:16:30.501Z,75.09
2022-08-02T23:19:15.955Z,74.70
2022-08-02T23:21:45.892Z,75.74
2022-08-02T23:24:30.316Z,77.92
2022-08-02T23:26:57.214Z,77.06
2022-08-02T23:29:24.202Z,76.49
2022-08-02T23:31:51.206Z,77.17
2022-08-02T23:34:19.831Z,76.39
2022-08-02T23:36:46.800Z,76.57
2022-08-02T23:39:13.737Z,77.06
2022-08-02T23:41:40.941Z,76.03
2022-08-02T23:44:15.507Z,77.10
2022-08-02T23:46:47.348Z,77.27
2022-08-02T23:49:16.682Z,77.13
2022-08-02T23:51:44.046Z,76.37
2022-08-02T23:54:11.635Z,77.78
2022-08-02T23:56:39.835Z,75.10
2022-08-02T23:59:07.860Z,77.55
